ADDS METAR Data INFO
IDs: Format: Raw Decoded Include TAF

Data at: 0152 UTC 19 Jul 2018

KDWH 190053Z 00000KT 10SM CLR 32/25 A2991 RMK AO2 SLP125 T03170250
KDWH 182353Z 21004KT 10SM CLR 34/23 A2989 RMK AO2 SLP120 T03390233 10350 20322 56016
KDWH 182253Z 22006KT 10SM CLR 34/23 A2990 RMK AO2 SLP124 T03440228
KDWH 182153Z 22006KT 10SM CLR 34/22 A2992 RMK AO2 SLP128 T03440222
KDWH 182053Z 20005KT 10SM CLR 34/23 A2994 RMK AO2 SLP136 T03440233 58021
KDWH 181953Z VRB05KT 10SM CLR 34/23 A2997 RMK AO2 SLP145 T03390233
KDWH 181853Z 26005KT 10SM SCT037 33/24 A2998 RMK AO2 SLP151 T03330244
KDWH 181753Z VRB06KT 10SM FEW033 32/24 A3000 RMK AO2 SLP157 T03220244 10328 20256 58011
KDWH 181653Z 22008KT 10SM SCT027 32/24 A3002 RMK AO2 SLP162 T03170244
KDWH 181555Z 22009KT 10SM SCT023 30/24 A3003 RMK AO2 T03000244
KDWH 181553Z COR 23009KT 10SM SCT023 30/24 A3003 RMK AO2 SLP166 T03000239
KDWH 181453Z 23010G15KT 10SM BKN012 BKN019 29/25 A3004 RMK AO2 SLP168 T02890250 50005
KDWH 181439Z 24009G14KT 10SM BKN012 29/25 A3004 RMK AO2 T02890250
KDWH 181353Z 23008KT 9SM BKN008 27/25 A3004 RMK AO2 SLP170 T02720250
KDWH 181308Z 24006KT 9SM BKN008 27/25 A3003 RMK AO2 T02670250
KDWH 181303Z 25007KT 9SM BKN010 27/26 A3003 RMK AO2 T02670256
KDWH 181253Z 23007KT 9SM SCT010 27/25 A3002 RMK AO2 SLP164 T02670250
KDWH 181153Z 23005KT 9SM SCT016 26/24 A3002 RMK AO2 SLP163 T02560244 10267 20256 53006
KDWH 181145Z 23005KT 9SM FEW011 BKN016 26/24 A3002 RMK AO2 T02560244
KDWH 181053Z 23005KT 10SM CLR 26/24 A3001 RMK AO2 SLP161 T02560244
KDWH 180953Z 23006KT 10SM CLR 26/24 A3001 RMK AO2 SLP160 T02560244
KDWH 180853Z 22006KT 10SM CLR 26/24 A3000 RMK AO2 SLP158 T02610244 56003
KDWH 180753Z 21007KT 10SM CLR 26/24 A3000 RMK AO2 SLP158 T02610244
KDWH 180653Z 22003KT 10SM CLR 26/24 A3001 RMK AO2 SLP159 T02610244
KDWH 180553Z 21005KT 10SM CLR 27/24 A3001 RMK AO2 SLP161 T02670244 10333 20267 403440250 50002
KDWH 180453Z 20007KT 10SM CLR 28/24 A3002 RMK AO2 SLP162 T02780239
KDWH 180353Z 20007KT 10SM CLR 28/23 A3002 RMK AO2 SLP164 T02830233
KDWH 180253Z 22006KT 10SM CLR 30/24 A3001 RMK AO2 SLP159 T03000244 53009
KDWH 180153Z 00000KT 10SM SCT055 28/26 A2999 RMK AO2 SLP152 T02830261
KDWH 180053Z 00000KT 10SM CLR 31/25 A2998 RMK AO2 SLP151 T03110250
KDWH 172353Z 22006KT 10SM CLR 33/23 A2998 RMK AO2 SLP149 T03330233 10344 20322 56012
KDWH 172253Z 22003KT 10SM CLR 34/23 A2999 RMK AO2 SLP151 T03440233
KDWH 172153Z AUTO VRB03KT 10SM CLR 34/22 A3000 RMK AO2 SLP155 T03390217
KDWH 172053Z AUTO 24007KT 10SM CLR 34/23 A3002 RMK AO2 SLP162 T03390233 58020
KDWH 171953Z 00000KT 10SM CLR 33/24 A3004 RMK AO2 SLP169 T03330239
KDWH 171853Z VRB05KT 10SM CLR 33/24 A3006 RMK AO2 SLP177 T03280244
KDWH 171753Z VRB04KT 10SM FEW031 32/24 A3008 RMK AO2 SLP182 T03220244 10322 20250 58009
KDWH 171653Z 23005KT 10SM SCT055 31/24 A3009 RMK AO2 SLP185 T03110244
KDWH 171553Z 22007KT 10SM BKN022 31/24 A3009 RMK AO2 SLP188 T03060244
KDWH 171453Z 23009KT 10SM BKN014 BKN020 28/25 A3010 RMK AO2 SLP191 T02830250 51013
KDWH 171419Z 24008KT 10SM BKN010 28/25 A3010 RMK AO2 T02780250
KDWH 171353Z VRB05KT 9SM BKN008 BKN012 27/25 A3010 RMK AO2 SLP190 T02720250